Flight Track Log - Related Links

Times and Time Zones

All times are in EST time to prevent confusion due to time zone crossing. See the CPT1940 flight status page for this flight to view local times or setup timezone preferences in your user account.

Time Position Orientation Groundspeed Altitude Reporting Facility
EST Latitude Longitude Course Direction KTS MPH feet Rate Location/Type
Wed 11:43:24 AM 41.6417 -109.0417 50° Northeast 162 186 8,600  Level Salt Lake Center
Wed 11:44:25 AM 41.6711 -108.9944 50° Northeast 148 170 9,600 878 Climbing Salt Lake Center
Wed 11:45:27 AM 41.6986 -108.9525 49° Northeast 152 175 10,400 871 Climbing Salt Lake Center
Wed 11:46:29 AM 41.7383 -108.9211 31° Northeast 149 171 11,400 871 Climbing Salt Lake Center
Wed 11:47:31 AM 41.7742 -108.8975 26° Northeast 149 171 12,200 677 Climbing Salt Lake Center
Wed 11:48:33 AM 41.8089 -108.8742 27° Northeast 147 169 12,800 387 Climbing Salt Lake Center
Wed 11:49:35 AM 41.8517 -108.8461 26° Northeast 150 173 13,000 97 Climbing Salt Lake Center
Wed 11:50:37 AM 41.8933 -108.8167 28° Northeast 163 188 13,000  Level Salt Lake Center
Wed 11:51:39 AM 41.9428 -108.7844 26° Northeast 173 199 13,000  Level Salt Lake Center
Wed 11:52:41 AM 41.9847 -108.7594 24° Northeast 173 199 13,000  Level Salt Lake Center
Wed 11:53:43 AM 42.0331 -108.7272 26° Northeast 173 199 13,000  Level Salt Lake Center
Wed 11:54:44 AM 42.0769 -108.6969 27° Northeast 179 206 13,000  Level Salt Lake Center
Wed 11:55:46 AM 42.1278 -108.6622 27° Northeast 182 209 13,000  Level Salt Lake Center
Wed 11:56:48 AM 42.1708 -108.6339 26° Northeast 181 208 13,000  Level Salt Lake Center
Wed 11:57:50 AM 42.2233 -108.5989 26° Northeast 185 213 13,000  Level Salt Lake Center
Wed 11:58:52 AM 42.2650 -108.5722 25° Northeast 180 207 13,000  Level Salt Lake Center
Wed 11:59:54 AM 42.3067 -108.5478 23° Northeast 174 200 13,000  Level Salt Lake Center
Wed 12:00:55 PM 42.3575 -108.5119 28° Northeast 180 207 13,000  Level Salt Lake Center
Wed 12:01:57 PM 42.3992 -108.4811 29° Northeast 180 207 13,000 -48 Level Salt Lake Center
Wed 12:02:59 PM 42.4433 -108.4483 29° Northeast 166 191 12,900 -48 Descending Salt Lake Center
Wed 12:04:01 PM 42.4789 -108.4536 354° North 138 159 12,900 48 Level Salt Lake Center
Wed 12:05:03 PM 42.5189 -108.4575 356° North 133 153 13,000 48 Climbing Salt Lake Center
Wed 12:06:05 PM 42.5539 -108.4556 North 132 152 13,000  Level Salt Lake Center
Wed 12:07:06 PM 42.5992 -108.4533 North 143 165 13,000  Level Salt Lake Center
Wed 12:08:08 PM 42.6408 -108.4483 North 154 177 13,000  Level Salt Lake Center
Wed 12:09:10 PM 42.6867 -108.4489 359° North 150 173 13,000  Level Salt Lake Center
Wed 12:10:12 PM 42.7250 -108.4506 358° North 145 167 13,000  Level Salt Lake Center
Wed 12:11:14 PM 42.7647 -108.4519 359° North 147 169 13,000 -49 Level Salt Lake Center
Wed 12:12:15 PM 42.8139 -108.4531 359° North 157 181 12,900  Descending Salt Lake Center
Wed 12:13:17 PM 42.8536 -108.4533 360° North 152 175 13,000 48 Climbing Salt Lake Center
Wed 12:14:19 PM 42.9003 -108.4553 358° North 150 173 13,000  Level Salt Lake Center
Wed 12:15:21 PM 42.9419 -108.4542 North 155 178 13,000 -48 Level Salt Lake Center
Wed 12:16:23 PM 42.9922 -108.4533 North 166 191 12,900 -48 Descending Salt Lake Center
Wed 12:17:25 PM 43.0383 -108.4539 359° North 166 191 12,900  Level Salt Lake Center
Wed 12:18:26 PM 43.0792 -108.4558 358° North 153 176 12,900 49 Level Salt Lake Center
Wed 12:19:28 PM 43.1219 -108.4411 14° North 155 178 13,000 48 Climbing Salt Lake Center
Wed 12:20:30 PM 43.1669 -108.4183 20° North 168 193 13,000  Level Salt Lake Center
Wed 12:21:32 PM 43.2194 -108.3967 17° North 164 189 13,000 -49 Level Salt Lake Center
Wed 12:22:33 PM 43.2650 -108.3792 16° North 169 194 12,900  Descending Salt Lake Center
Wed 12:23:35 PM 43.3092 -108.3611 17° North 166 191 13,000 48 Climbing Salt Lake Center
Wed 12:24:37 PM 43.3536 -108.3450 15° North 165 190 13,000 -48 Level Salt Lake Center
Wed 12:25:39 PM 43.3975 -108.3272 16° North 165 190 12,900 -49 Descending Salt Lake Center
Wed 12:26:40 PM 43.4414 -108.3092 17° North 164 189 12,900 49 Level Salt Lake Center
Wed 12:27:42 PM 43.4789 -108.3117 357° North 154 177 13,000 48 Climbing Salt Lake Center
Wed 12:28:44 PM 43.5178 -108.3381 334° Northwest 139 160 13,000  Level Salt Lake Center
Wed 12:29:46 PM 43.5519 -108.3553 340° North 131 151 13,000  Level Salt Lake Center
Wed 12:30:48 PM 43.5889 -108.3736 340° North 134 154 13,000 -49 Level Salt Lake Center
Wed 12:31:49 PM 43.6272 -108.3931 340° North 140 161 12,900  Descending Salt Lake Center
Wed 12:32:51 PM 43.6642 -108.4136 338° Northwest 142 163 13,000 48 Climbing Salt Lake Center
Wed 12:33:53 PM 43.6972 -108.4367 333° Northwest 139 160 13,000  Level Salt Lake Center
Wed 12:34:55 PM 43.7392 -108.4600 338° Northwest 136 157 13,000  Level Salt Lake Center
Wed 12:35:56 PM 43.7753 -108.4764 342° North 137 158 13,000 49 Level Salt Lake Center
Wed 12:36:58 PM 43.8081 -108.4961 337° Northwest 134 154 13,100 48 Climbing Salt Lake Center
Wed 12:38:00 PM 43.8406 -108.5156 337° Northwest 130 150 13,100  Level Salt Lake Center
Wed 12:39:02 PM 43.8742 -108.5339 339° North 130 150 13,100  Level Salt Lake Center
Wed 12:40:04 PM 43.9136 -108.5456 348° North 136 157 13,100  Level Salt Lake Center
Wed 12:41:05 PM 43.9578 -108.5472 358° North 147 169 13,100  Level Salt Lake Center
Wed 12:42:07 PM 44.0139 -108.5550 354° North 160 184 13,100  Level Salt Lake Center
Wed 12:43:09 PM 44.0511 -108.5669 347° North 149 171 13,100  Level Salt Lake Center
Wed 12:44:11 PM 44.0931 -108.5747 352° North 149 171 13,100  Level Salt Lake Center
Wed 12:45:13 PM 44.1372 -108.5803 355° North 153 176 13,100  Level Salt Lake Center
Wed 12:46:14 PM 44.1792 -108.5894 351° North 154 177 13,100  Level Salt Lake Center
Wed 12:47:16 PM 44.2228 -108.5983 352° North 155 178 13,100 -48 Level Salt Lake Center
Wed 12:48:18 PM 44.2669 -108.6053 354° North 158 182 13,000  Descending Salt Lake Center
Wed 12:49:20 PM 44.3169 -108.6158 351° North 155 178 13,100 -290 Climbing Salt Lake Center
Wed 12:50:22 PM 44.3564 -108.6250 351° North 150 173 12,400 -581 Descending Salt Lake Center
Wed 12:51:24 PM 44.3983 -108.6322 353° North 150 173 11,900 -634 Descending Salt Lake Center
Wed 12:52:25 PM 44.4394 -108.6392 353° North 150 173 11,100 -780 Descending Salt Lake Center
Wed 12:53:27 PM 44.4783 -108.6481 351° North 147 169 10,300 -629 Descending Salt Lake Center
Wed 12:54:29 PM 44.5167 -108.6539 354° North 143 165 9,800 -581 Descending Salt Lake Center
Wed 12:55:31 PM 44.5550 -108.6614 352° North 141 162 9,100 -484 Descending Salt Lake Center
Wed 12:56:33 PM 44.5931 -108.6856 336° Northwest 132 152 8,800 -488 Descending Salt Lake Center
Wed 12:57:34 PM 44.6183 -108.7181 318° Northwest 127 146 8,100 -341 Descending Salt Lake Center
Wed 12:58:36 PM 44.6453 -108.7469 323° Northwest 123 142 8,100  Level Salt Lake Center
Wed 12:59:39 PM 44.6553 -108.7856 290° West 134 154 8,100 -290 Level Salt Lake Center
Wed 01:00:40 PM 44.6347 -108.8225 232° Southwest 126 145 7,500 -293 Descending Salt Lake Center
Wed 01:01:42 PM 44.6144 -108.8600 233° Southwest 122 140 7,500 -97 Level Salt Lake Center
Wed 01:02:44 PM 44.5919 -108.8981 230° Southwest 123 142 7,300 -484 Descending Salt Lake Center
Wed 01:03:46 PM 44.5678 -108.9419 232° Southwest 122 140 6,500 -780 Descending Salt Lake Center
Wed 01:04:47 PM 44.5453 -108.9825 232° Southwest 125 144 5,700 -787 Descending Salt Lake Center
Wed 01:06:00 PM 44.5167 -109.0167 241° Southwest  Level FlightAware Approximate
Wed 01:13:00 PM 44.5202 -109.0238 241° Southwest  Level Estimated

Login

Don't have an account? Register now (free) for customized features, flight alerts, and more!